createdAt,value
2023-01-21T00:11:06.692Z,93053.25
2023-01-21T00:26:10.499Z,93035.66
2023-01-21T00:41:12.673Z,93044.88
2023-01-21T00:56:14.246Z,93029.94
2023-01-21T01:11:16.988Z,93035.63
2023-01-21T01:26:19.584Z,93040.25
2023-01-21T01:41:27.374Z,93022.88
2023-01-21T01:56:29.498Z,92992.75
2023-01-21T02:11:31.007Z,92976.66
2023-01-21T02:26:41.699Z,92956.72
2023-01-21T02:41:55.597Z,92939.88
2023-01-21T02:56:57.118Z,92929.50
2023-01-21T03:12:16.923Z,92910.94
2023-01-21T03:27:19.751Z,92883.38
2023-01-21T03:42:22.897Z,92886.00
2023-01-21T03:57:24.434Z,92855.19
2023-01-21T04:12:25.967Z,92872.44
2023-01-21T04:27:28.358Z,92841.13
2023-01-21T04:42:29.840Z,92880.41
2023-01-21T04:57:31.320Z,92885.53
2023-01-21T05:12:32.780Z,92920.03
2023-01-21T05:27:35.743Z,92914.25
2023-01-21T05:42:37.254Z,92943.66
2023-01-21T05:57:38.748Z,92946.50
2023-01-21T06:12:40.413Z,92940.41
2023-01-21T06:27:42.018Z,92942.91
2023-01-21T06:42:45.494Z,92965.78
2023-01-21T06:57:46.939Z,92985.28
2023-01-21T07:12:48.449Z,92981.50
2023-01-21T07:27:49.922Z,92983.25
2023-01-21T07:42:52.259Z,92949.81
2023-01-21T07:57:55.635Z,92951.13
2023-01-21T08:12:57.170Z,92970.41
2023-01-21T08:27:59.385Z,92970.75
2023-01-21T08:43:02.164Z,92991.34
2023-01-21T08:58:03.698Z,93007.94
2023-01-21T09:13:05.991Z,92986.47
2023-01-21T09:28:07.433Z,92981.00
2023-01-21T09:43:13.561Z,92955.56
2023-01-21T09:58:21.171Z,92939.47
2023-01-21T10:13:41.374Z,92923.34
2023-01-21T10:28:53.305Z,92934.34
2023-01-21T10:43:57.906Z,92913.53
2023-01-21T10:59:02.430Z,92906.50
2023-01-21T11:14:04.079Z,92879.81
2023-01-21T11:29:16.253Z,92895.38
2023-01-21T11:44:18.955Z,92886.34
2023-01-21T11:59:24.717Z,92892.47
2023-01-21T12:14:29.538Z,92896.78
2023-01-21T12:29:37.092Z,92873.03
2023-01-21T12:44:57.295Z,92915.72
2023-01-21T13:00:02.737Z,92905.09
2023-01-21T13:15:30.527Z,92914.22
2023-01-21T13:30:45.373Z,92927.00
2023-01-21T13:45:54.211Z,92943.53
2023-01-21T14:00:59.785Z,92976.22
2023-01-21T14:16:18.900Z,92992.25
2023-01-21T14:31:22.736Z,92993.44
2023-01-21T14:46:24.182Z,93008.25
2023-01-21T15:01:45.836Z,93026.72
2023-01-21T15:16:48.010Z,93025.19
2023-01-21T15:31:49.655Z,93011.28
2023-01-21T15:47:17.548Z,93044.56
2023-01-21T16:02:19.147Z,93051.53
2023-01-21T16:17:36.345Z,93081.91
2023-01-21T16:32:38.144Z,93085.09
2023-01-21T16:47:40.639Z,93094.25
2023-01-21T17:02:42.192Z,93112.28
2023-01-21T17:17:43.767Z,93140.13
2023-01-21T17:32:52.392Z,93142.81
2023-01-21T17:48:08.576Z,93139.78
2023-01-21T18:03:11.904Z,93168.31
2023-01-21T18:18:17.830Z,93187.41
2023-01-21T18:33:19.957Z,93208.06
2023-01-21T18:48:23.514Z,93214.69
2023-01-21T19:03:25.113Z,93228.53
2023-01-21T19:18:26.664Z,93250.16
2023-01-21T19:33:28.162Z,93252.97
2023-01-21T19:48:29.826Z,93260.28
2023-01-21T20:03:31.295Z,93254.63
2023-01-21T20:18:33.213Z,93279.94
2023-01-21T20:33:35.792Z,93291.03
2023-01-21T20:48:40.472Z,93302.22
2023-01-21T21:03:42.020Z,93333.66
2023-01-21T21:18:43.519Z,93351.91
2023-01-21T21:33:45.022Z,93365.09
2023-01-21T21:48:46.531Z,93367.03
2023-01-21T22:03:48.347Z,93355.19
2023-01-21T22:18:50.511Z,93368.59
2023-01-21T22:33:52.490Z,93394.69
2023-01-21T22:48:54.344Z,93404.31
2023-01-21T23:03:56.024Z,93404.31
2023-01-21T23:18:57.824Z,93418.81
2023-01-21T23:33:59.400Z,93420.34
2023-01-21T23:49:01.142Z,93436.44
